Tropical Cyclones
[Index]
Main Index Home Page Stock Weather Photos Extreme Storms Discussion Storm News and Storm Chasing Reports Tropical Cyclones / Hurricanes / Typhoons Weather Data and Links Wild Fires / Bushfires Weather Observation Techniques Weather Picture Catalogue Tornado Pictures and Reports Stock Video Footage and DVDs for sale
Season 2002-2003 Tropical Cyclone KALUNDE Track Map
Season 2002-2003 Summaries (Operational Data): [AU] [SIO] [SPAC] [SH]
<<- Previous TC | 2002-2003 Season | Next TC ->>

click for intensity scale information  Lat/long Grid: Show Hide

 Date Labels: Show Hide

Operational Tropical Cyclone Data : JTWC Advisories

Name: KALUNDE
Number: 0323

04 Mar 2003 00:00 UTC to 16 Mar 2003 12:00 UTC

    date/time    lat    long     hPa   cat  kts
2003-03-04 00   10.8    79.9    1003         20          
2003-03-04 06   11.2    78.8    1002         20          
2003-03-04 12   11.5    78.5    1000         25          
2003-03-04 18   11.5    78.2     998         30          
2003-03-05 00   11.2    78.0     997         30          
2003-03-05 06   11.1    77.4     995    1    35          
2003-03-05 12   11.2    76.8     990    1    40          
2003-03-05 18   11.3    76.4     990    1    40          
2003-03-06 00   11.3    76.0     991    1    40          
2003-03-06 06   11.3    76.3     991    1    40          
2003-03-06 12   11.4    75.6     982    2    50          
2003-03-06 18   11.6    74.7     982    2    50          
2003-03-07 00   11.9    74.5     980    2    55          
2003-03-07 06   12.5    73.5     960    3    70          
2003-03-07 12   13.2    72.7     945    3    80          
2003-03-07 18   13.4    71.8     935    4    95          
2003-03-08 00   13.8    71.2     927    4   100          
2003-03-08 06   13.9    70.2     905    5   115          
2003-03-08 12   14.3    69.6     905    5   115          
2003-03-08 18   14.8    69.1     910    5   110          
2003-03-09 00   15.2    68.8     915    5   110          
2003-03-09 06   15.7    68.2     915    5   110          
2003-03-09 12   16.0    67.8     915    5   110          
2003-03-09 18   16.4    67.5     915    5   110          
2003-03-10 00   16.6    67.3     915    5   110          
2003-03-10 06   17.1    66.7     925    4   105          
2003-03-10 12   17.5    66.2     940    4    90          
2003-03-10 18   17.7    66.0     940    4    90          
2003-03-11 00   17.9    65.6     940    4    90          
2003-03-11 06   18.2    65.3     950    3    80          
2003-03-11 12   18.4    64.9     950    3    80          
2003-03-11 18   18.6    64.6     950    3    80          
2003-03-12 00   18.9    64.1     950    3    80          
2003-03-12 06   19.1    64.1     955    3    80          
2003-03-12 12   19.6    63.6     955    3    80          
2003-03-12 18   20.0    64.0     960    3    80          
2003-03-13 00   20.4    64.0     955    3    80          
2003-03-13 06   21.0    64.4     955    3    80          
2003-03-13 12   21.7    64.0     960    3    75          
2003-03-13 18   22.6    64.4     965    3    70          
2003-03-14 00   24.0    64.7     975    2    60          
2003-03-14 06   24.1    64.6     978    2    55          
2003-03-14 12   24.9    65.1     980    2    55          
2003-03-14 18   25.9    65.2     984    2    50          
2003-03-15 00   26.4    65.6     986    1    45          
2003-03-15 06   27.6    66.3     995    1    35          
2003-03-15 12   28.8    66.3     995    1    35          
2003-03-15 18   29.3    66.2     997    1    35          
2003-03-16 00   30.5    66.3     998    1    40          
2003-03-16 06   33.9    67.1     998    1    45          
2003-03-16 12   35.5    67.5     998    1    45          
Winds are 10-min average.

Tropical cyclone tracks developed by Michael Bath using operational warnings and advisories and Google Maps.


[Australian Severe Weather index] [Copyright Notice] [Email Contacts] [Search This Site] [Privacy Policy]
Document: tropical_cyclone_kalunde.htm Updated: 2 May 2017